createdAt,value
2019-01-17T00:02:04.858Z,14.17
2019-01-17T00:04:34.673Z,13.13
2019-01-17T00:07:09.415Z,14.73
2019-01-17T00:09:37.370Z,13.30
2019-01-17T00:12:06.162Z,13.17
2019-01-17T00:14:35.864Z,13.47
2019-01-17T00:17:02.913Z,12.03
2019-01-17T00:19:33.751Z,12.00
2019-01-17T00:22:15.646Z,12.30
2019-01-17T00:25:00.440Z,11.73
2019-01-17T00:27:33.297Z,13.20
2019-01-17T00:30:20.160Z,12.33
2019-01-17T00:33:00.017Z,11.80
2019-01-17T00:35:27.107Z,11.77
2019-01-17T00:37:59.903Z,11.53
2019-01-17T00:40:35.848Z,12.63
2019-01-17T00:43:02.896Z,13.03
2019-01-17T00:45:35.788Z,13.53
2019-01-17T00:48:08.775Z,12.90
2019-01-17T00:50:41.765Z,11.77
2019-01-17T00:53:26.625Z,12.50
2019-01-17T00:55:58.280Z,11.07
2019-01-17T00:58:30.354Z,11.13
2019-01-17T01:00:59.973Z,11.47
2019-01-17T01:03:28.950Z,13.80
2019-01-17T01:08:53.051Z,18.37
2019-01-17T01:11:26.756Z,14.70
2019-01-17T01:13:56.675Z,15.37
2019-01-17T01:16:41.440Z,11.30
2019-01-17T01:19:12.374Z,11.43
2019-01-17T01:21:42.304Z,12.93
2019-01-17T01:24:23.168Z,11.83
2019-01-17T01:27:01.072Z,12.33
2019-01-17T01:29:32.108Z,12.60
2019-01-17T01:32:00.036Z,12.53
2019-01-17T01:34:27.640Z,12.33
2019-01-17T01:37:10.151Z,11.60
2019-01-17T01:39:53.890Z,11.57
2019-01-17T01:42:35.788Z,12.63
2019-01-17T01:45:06.734Z,12.33
2019-01-17T01:47:40.642Z,11.57
2019-01-17T01:50:24.479Z,12.53
2019-01-17T01:52:51.532Z,11.87
2019-01-17T01:55:20.533Z,11.70
2019-01-17T01:57:49.312Z,10.37
2019-01-17T02:00:16.673Z,9.97
2019-01-17T02:02:43.715Z,12.27
2019-01-17T02:05:10.780Z,11.07
2019-01-17T02:07:37.818Z,11.60
2019-01-17T02:10:04.860Z,11.53
2019-01-17T02:12:31.910Z,11.67
2019-01-17T02:15:00.257Z,11.70
2019-01-17T02:17:27.342Z,12.57
2019-01-17T02:19:54.385Z,11.40
2019-01-17T02:22:21.536Z,11.93
2019-01-17T02:24:48.585Z,11.70
2019-01-17T02:27:15.536Z,10.37
2019-01-17T02:29:42.994Z,11.50
2019-01-17T02:32:10.040Z,11.30
2019-01-17T02:34:37.093Z,9.30
2019-01-17T02:37:04.345Z,10.73
2019-01-17T02:39:31.402Z,11.30
2019-01-17T02:41:58.437Z,11.03
2019-01-17T02:44:25.486Z,11.60
2019-01-17T02:46:52.501Z,11.43
2019-01-17T02:49:19.581Z,11.90
2019-01-17T02:51:46.783Z,11.07
2019-01-17T02:54:13.784Z,12.17
2019-01-17T02:56:40.835Z,11.40
2019-01-17T02:59:07.884Z,10.13
2019-01-17T03:01:34.929Z,10.57
2019-01-17T03:04:01.983Z,10.93
2019-01-17T03:06:29.440Z,10.27
2019-01-17T03:08:56.483Z,11.43
2019-01-17T03:11:23.531Z,10.27
2019-01-17T03:13:50.586Z,10.33
2019-01-17T03:16:17.629Z,10.67
2019-01-17T03:18:44.678Z,10.47
2019-01-17T03:21:11.732Z,11.17
2019-01-17T03:23:38.776Z,10.77
2019-01-17T03:26:05.823Z,10.50
2019-01-17T03:28:32.875Z,10.43
2019-01-17T03:30:59.922Z,11.97
2019-01-17T03:33:26.970Z,10.70
2019-01-17T03:35:54.221Z,10.60
2019-01-17T03:38:21.272Z,10.80
2019-01-17T03:40:48.324Z,10.40
2019-01-17T03:43:15.320Z,11.30
2019-01-17T03:45:42.321Z,10.33
2019-01-17T03:48:09.275Z,10.93
2019-01-17T03:50:36.313Z,11.63
2019-01-17T03:53:03.782Z,12.60
2019-01-17T03:55:31.640Z,11.30
2019-01-17T03:57:58.631Z,12.03
2019-01-17T04:00:27.268Z,11.97
2019-01-17T04:02:54.319Z,13.27
2019-01-17T04:05:21.385Z,12.63
2019-01-17T04:07:48.411Z,12.60
2019-01-17T04:10:15.478Z,11.77
2019-01-17T04:12:42.513Z,9.63
2019-01-17T04:15:09.566Z,11.23
2019-01-17T04:17:36.606Z,10.27
2019-01-17T04:20:03.665Z,12.40
2019-01-17T04:22:30.655Z,12.17
2019-01-17T04:24:57.654Z,10.47
2019-01-17T04:27:24.709Z,9.73
2019-01-17T04:29:51.746Z,11.17
2019-01-17T04:32:18.694Z,11.90
2019-01-17T04:34:45.951Z,11.43
2019-01-17T04:37:13.815Z,11.33
2019-01-17T04:39:40.761Z,11.23
2019-01-17T04:42:07.809Z,11.83
2019-01-17T04:44:34.862Z,12.33
2019-01-17T04:47:03.647Z,10.53
2019-01-17T04:49:30.698Z,10.87
2019-01-17T04:51:57.707Z,12.37
2019-01-17T04:54:24.701Z,11.30
2019-01-17T04:56:52.558Z,11.00
2019-01-17T04:59:19.612Z,10.57
2019-01-17T05:01:46.654Z,12.00
2019-01-17T05:04:13.703Z,10.80
2019-01-17T05:06:40.648Z,11.07
2019-01-17T05:09:07.697Z,11.37
2019-01-17T05:11:34.750Z,11.43
2019-01-17T05:14:01.794Z,12.83
2019-01-17T05:16:28.848Z,10.60
2019-01-17T05:18:55.897Z,13.77
2019-01-17T05:21:22.945Z,13.17
2019-01-17T05:23:49.995Z,11.23
2019-01-17T05:26:17.045Z,10.60
2019-01-17T05:28:44.087Z,11.83
2019-01-17T05:31:11.142Z,10.13
2019-01-17T05:33:38.194Z,12.57
2019-01-17T05:36:05.232Z,10.10
2019-01-17T05:38:32.280Z,9.97
2019-01-17T05:41:01.580Z,11.50
2019-01-17T05:43:28.641Z,12.07
2019-01-17T05:45:55.641Z,10.30
2019-01-17T05:48:24.373Z,11.87
2019-01-17T05:50:51.415Z,11.70
2019-01-17T05:53:18.465Z,9.17
2019-01-17T05:55:46.648Z,11.03
2019-01-17T05:58:13.690Z,10.33
2019-01-17T06:00:40.842Z,11.33
2019-01-17T06:03:08.088Z,12.10
2019-01-17T06:05:36.231Z,11.60
2019-01-17T06:08:03.140Z,12.13
2019-01-17T06:10:30.158Z,10.90
2019-01-17T06:12:57.213Z,11.77
2019-01-17T06:15:24.253Z,11.70
2019-01-17T06:17:51.303Z,11.43
2019-01-17T06:20:18.355Z,11.33
2019-01-17T06:22:47.243Z,11.30
2019-01-17T06:25:14.314Z,10.00
2019-01-17T06:27:41.399Z,12.33
2019-01-17T06:30:10.437Z,12.20
2019-01-17T06:32:37.490Z,11.73
2019-01-17T06:35:04.640Z,12.00
2019-01-17T06:37:31.682Z,10.93
2019-01-17T06:39:58.732Z,12.70
2019-01-17T06:42:25.801Z,14.53
2019-01-17T06:44:52.830Z,12.77
2019-01-17T06:47:19.877Z,10.70
2019-01-17T06:49:46.932Z,9.83
2019-01-17T06:52:14.000Z,11.27
2019-01-17T06:54:40.925Z,11.00
2019-01-17T06:57:07.969Z,11.10
2019-01-17T06:59:35.121Z,11.00
2019-01-17T07:02:02.169Z,10.23
2019-01-17T07:04:29.230Z,10.77
2019-01-17T07:06:57.911Z,11.23
2019-01-17T07:09:24.956Z,10.03
2019-01-17T07:11:52.003Z,10.57
2019-01-17T07:14:19.151Z,9.77
2019-01-17T07:16:46.209Z,10.70
2019-01-17T07:19:13.365Z,13.17
2019-01-17T07:21:40.357Z,10.30
2019-01-17T07:24:07.966Z,12.40
2019-01-17T07:26:35.009Z,9.60
2019-01-17T07:29:02.060Z,9.40
2019-01-17T07:31:30.167Z,9.50
2019-01-17T07:33:57.491Z,8.67
2019-01-17T07:36:24.534Z,9.97
2019-01-17T07:38:51.584Z,10.77
2019-01-17T07:41:18.645Z,10.97
2019-01-17T07:43:45.787Z,11.77
2019-01-17T07:46:13.422Z,11.23
2019-01-17T07:48:42.240Z,10.03
2019-01-17T07:51:09.290Z,10.80
2019-01-17T07:53:36.339Z,11.90
2019-01-17T07:56:03.385Z,10.43
2019-01-17T07:58:30.440Z,10.50
2019-01-17T08:00:58.403Z,10.60
2019-01-17T08:03:25.354Z,11.80
2019-01-17T08:05:52.393Z,12.20
2019-01-17T08:08:21.388Z,13.43
2019-01-17T08:10:48.436Z,12.47
2019-01-17T08:13:15.593Z,22.30
2019-01-17T08:15:42.748Z,20.27
2019-01-17T08:18:09.808Z,12.30
2019-01-17T08:20:36.842Z,12.03
2019-01-17T08:23:03.916Z,14.07
2019-01-17T08:25:32.629Z,18.73
2019-01-17T08:27:59.623Z,14.07
2019-01-17T08:30:26.666Z,41.33
2019-01-17T08:32:53.664Z,28.80
2019-01-17T08:35:20.662Z,78.43
2019-01-17T08:37:47.721Z,97.60
2019-01-17T08:40:26.851Z,23.50
2019-01-17T08:42:53.891Z,40.30
2019-01-17T08:45:20.842Z,41.67
2019-01-17T08:47:47.886Z,57.03
2019-01-17T08:50:14.942Z,36.63
2019-01-17T08:52:41.989Z,44.77
2019-01-17T08:55:09.052Z,20.87
2019-01-17T08:57:36.080Z,13.07
2019-01-17T09:00:03.231Z,11.07
2019-01-17T09:02:30.283Z,12.47
2019-01-17T09:04:57.328Z,13.00
2019-01-17T09:07:24.377Z,15.57
2019-01-17T09:09:51.429Z,17.50
2019-01-17T09:12:18.373Z,16.93
2019-01-17T09:14:45.425Z,14.43
2019-01-17T09:17:12.420Z,12.97
2019-01-17T09:19:40.391Z,16.57
2019-01-17T09:22:07.384Z,15.40
2019-01-17T09:24:34.432Z,17.47
2019-01-17T09:27:03.270Z,17.93
2019-01-17T09:29:30.270Z,14.40
2019-01-17T09:31:57.324Z,14.17
2019-01-17T09:34:24.981Z,23.27
2019-01-17T09:36:52.033Z,23.77
2019-01-17T09:39:19.084Z,22.37
2019-01-17T09:41:46.156Z,22.87
2019-01-17T09:44:13.176Z,21.67
2019-01-17T09:46:40.230Z,22.53
2019-01-17T09:49:07.379Z,22.53
2019-01-17T09:51:34.433Z,26.60
2019-01-17T09:54:01.575Z,23.57
2019-01-17T09:56:28.615Z,39.10
2019-01-17T09:58:55.677Z,26.03
2019-01-17T10:01:22.721Z,26.60
2019-01-17T10:03:51.518Z,24.83
2019-01-17T10:06:18.518Z,21.40
2019-01-17T10:09:04.894Z,23.90
2019-01-17T10:11:58.752Z,21.57
2019-01-17T10:14:25.785Z,20.70
2019-01-17T10:16:52.834Z,22.03
2019-01-17T10:19:20.659Z,24.23
2019-01-17T10:21:49.495Z,23.83
2019-01-17T10:24:35.389Z,32.53
2019-01-17T10:27:06.320Z,24.63
2019-01-17T10:29:35.315Z,24.80
2019-01-17T10:32:08.404Z,22.20
2019-01-17T10:34:36.278Z,24.90
2019-01-17T10:37:05.272Z,22.93
2019-01-17T10:39:34.854Z,22.83
2019-01-17T10:42:03.770Z,25.10
2019-01-17T10:44:30.816Z,20.60
2019-01-17T10:46:57.869Z,20.40
2019-01-17T10:49:30.753Z,22.53
2019-01-17T10:52:03.637Z,24.87
2019-01-17T10:54:50.042Z,22.83
2019-01-17T10:57:18.928Z,23.50
2019-01-17T10:59:49.663Z,22.47
2019-01-17T11:02:32.482Z,23.40
2019-01-17T11:05:17.247Z,23.17
2019-01-17T11:07:44.297Z,23.93
2019-01-17T11:10:17.389Z,23.33
2019-01-17T11:12:48.945Z,23.33
2019-01-17T11:15:17.577Z,22.83
2019-01-17T11:18:04.497Z,25.27
2019-01-17T11:20:36.423Z,24.30
2019-01-17T11:23:09.395Z,25.60
2019-01-17T11:25:52.624Z,26.47
2019-01-17T11:28:29.606Z,29.00
2019-01-17T11:30:59.616Z,31.40
2019-01-17T11:33:32.508Z,26.40
2019-01-17T11:36:07.272Z,26.57
2019-01-17T11:38:50.969Z,29.93
2019-01-17T11:41:20.850Z,31.00
2019-01-17T11:43:47.889Z,27.00
2019-01-17T11:46:22.870Z,32.17
2019-01-17T11:48:55.754Z,34.07
2019-01-17T11:51:32.735Z,29.83
2019-01-17T11:54:03.675Z,31.17
2019-01-17T11:56:32.672Z,38.80
2019-01-17T11:59:07.706Z,30.90
2019-01-17T12:01:52.578Z,29.83
2019-01-17T12:04:25.460Z,28.30
2019-01-17T12:06:52.506Z,32.53
2019-01-17T12:09:19.657Z,29.40
2019-01-17T12:11:46.654Z,34.77
2019-01-17T12:14:13.652Z,29.17
2019-01-17T12:16:40.654Z,28.03
2019-01-17T12:19:09.591Z,32.43
2019-01-17T12:21:38.791Z,30.17
2019-01-17T12:24:05.845Z,32.87
2019-01-17T12:26:32.887Z,29.53
2019-01-17T12:28:59.936Z,26.70
2019-01-17T12:31:26.992Z,26.47
2019-01-17T12:33:54.035Z,28.43
2019-01-17T12:36:21.085Z,28.03
2019-01-17T12:38:48.078Z,30.00
2019-01-17T12:41:15.077Z,28.23
2019-01-17T12:43:42.130Z,29.13
2019-01-17T12:46:09.686Z,26.40
2019-01-17T12:48:36.740Z,30.00
2019-01-17T12:51:03.785Z,28.43
2019-01-17T12:53:30.831Z,35.93
2019-01-17T12:55:57.827Z,30.83
2019-01-17T12:58:24.826Z,34.30
2019-01-17T13:00:51.927Z,32.37
2019-01-17T13:03:18.923Z,30.03
2019-01-17T13:05:45.973Z,30.77
2019-01-17T13:08:13.026Z,33.03
2019-01-17T13:10:40.068Z,32.23
2019-01-17T13:13:07.424Z,36.40
2019-01-17T13:15:34.478Z,38.93
2019-01-17T13:18:01.522Z,36.13
2019-01-17T13:20:28.841Z,32.37
2019-01-17T13:22:55.823Z,33.90
2019-01-17T13:25:28.166Z,30.53
2019-01-17T13:27:55.656Z,30.83
2019-01-17T13:30:22.919Z,29.30
2019-01-17T13:32:50.162Z,30.50
2019-01-17T13:35:17.313Z,35.90
2019-01-17T13:37:44.371Z,34.23
2019-01-17T13:40:14.332Z,37.00
2019-01-17T13:42:41.335Z,48.97
2019-01-17T13:45:08.604Z,39.17
2019-01-17T13:47:35.627Z,38.57
2019-01-17T13:50:02.779Z,32.13
2019-01-17T13:52:29.828Z,31.73
2019-01-17T13:54:56.882Z,30.73
2019-01-17T13:57:23.923Z,33.33
2019-01-17T13:59:50.972Z,30.10
2019-01-17T14:02:18.039Z,31.90
2019-01-17T14:04:45.040Z,31.97
2019-01-17T14:07:12.122Z,32.87
2019-01-17T14:09:39.174Z,36.27
2019-01-17T14:12:06.221Z,34.47
2019-01-17T14:14:33.371Z,33.53
2019-01-17T14:17:00.418Z,32.57
2019-01-17T14:19:27.469Z,32.70
2019-01-17T14:21:54.559Z,32.57
2019-01-17T14:24:21.773Z,33.07
2019-01-17T14:26:48.813Z,32.70
2019-01-17T14:29:15.829Z,33.13
2019-01-17T14:31:42.824Z,31.87
2019-01-17T14:34:09.948Z,34.87
2019-01-17T14:36:37.641Z,33.60
2019-01-17T14:39:04.773Z,33.33
2019-01-17T14:41:31.826Z,34.10
2019-01-17T14:43:58.933Z,34.00
2019-01-17T14:46:26.040Z,34.90
2019-01-17T14:48:53.070Z,34.90
2019-01-17T14:51:20.127Z,36.63
2019-01-17T14:53:47.167Z,35.57
2019-01-17T14:56:14.341Z,36.17
2019-01-17T14:58:41.272Z,38.37
2019-01-17T15:01:08.323Z,45.57
2019-01-17T15:03:35.421Z,37.33
2019-01-17T15:06:02.415Z,35.47
2019-01-17T15:08:29.565Z,35.77
2019-01-17T15:10:56.609Z,46.80
2019-01-17T15:13:23.680Z,40.90
2019-01-17T15:15:50.710Z,35.57
2019-01-17T15:18:17.767Z,34.57
2019-01-17T15:20:45.028Z,34.57
2019-01-17T15:23:12.165Z,35.63
2019-01-17T15:25:39.376Z,36.33
2019-01-17T15:28:06.359Z,39.27
2019-01-17T15:30:33.369Z,51.47
2019-01-17T15:33:00.371Z,48.47
2019-01-17T15:35:27.402Z,36.20
2019-01-17T15:37:54.408Z,36.30
2019-01-17T15:40:21.499Z,43.30
2019-01-17T15:42:48.546Z,38.53
2019-01-17T15:45:15.600Z,43.13
2019-01-17T15:47:42.753Z,41.13
2019-01-17T15:50:10.000Z,76.20
2019-01-17T15:52:37.094Z,45.47
2019-01-17T15:55:04.205Z,44.87
2019-01-17T15:57:33.980Z,61.93
2019-01-17T15:59:58.400Z,115.47
2019-01-17T16:02:25.446Z,140.27
2019-01-17T16:04:52.508Z,45.73
2019-01-17T16:07:19.557Z,45.07
2019-01-17T16:09:46.593Z,44.07
2019-01-17T16:12:13.648Z,44.40
2019-01-17T16:14:40.695Z,50.03
2019-01-17T16:17:08.147Z,45.23
2019-01-17T16:19:35.298Z,42.17
2019-01-17T16:22:02.865Z,43.43
2019-01-17T16:24:31.955Z,50.07
2019-01-17T16:26:59.011Z,71.40
2019-01-17T16:29:26.162Z,75.30
2019-01-17T16:31:54.333Z,82.07
2019-01-17T16:34:21.276Z,84.20
2019-01-17T16:36:48.325Z,69.33
2019-01-17T16:39:16.003Z,52.23
2019-01-17T16:41:43.037Z,43.60
2019-01-17T16:44:10.085Z,38.93
2019-01-17T16:46:37.613Z,39.10
2019-01-17T16:49:04.696Z,41.20
2019-01-17T16:51:31.847Z,38.03
2019-01-17T16:53:59.373Z,39.83
2019-01-17T16:56:27.787Z,40.30
2019-01-17T16:58:54.835Z,39.60
2019-01-17T17:01:22.300Z,38.60
2019-01-17T17:03:49.447Z,38.33
2019-01-17T17:06:16.698Z,37.13
2019-01-17T17:08:43.851Z,35.73
2019-01-17T17:11:12.349Z,36.10
2019-01-17T17:13:39.380Z,32.83
2019-01-17T17:16:06.427Z,33.37
2019-01-17T17:18:33.484Z,32.83
2019-01-17T17:21:00.540Z,30.07
2019-01-17T17:23:28.130Z,41.00
2019-01-17T17:25:55.389Z,32.53
2019-01-17T17:28:22.488Z,31.30
2019-01-17T17:30:50.105Z,30.87
2019-01-17T17:33:17.202Z,28.10
2019-01-17T17:35:44.258Z,28.17
2019-01-17T17:38:11.303Z,27.43
2019-01-17T17:40:38.463Z,30.83
2019-01-17T17:43:05.615Z,36.27
2019-01-17T17:45:32.649Z,29.93
2019-01-17T17:47:59.937Z,30.00
2019-01-17T17:50:26.950Z,30.97
2019-01-17T17:52:54.001Z,34.50
2019-01-17T17:55:21.012Z,31.67
2019-01-17T17:57:48.101Z,32.33
2019-01-17T18:00:15.204Z,42.57
2019-01-17T18:02:42.396Z,34.27
2019-01-17T18:05:09.609Z,32.33
2019-01-17T18:07:36.698Z,30.40
2019-01-17T18:10:04.265Z,31.43
2019-01-17T18:12:32.246Z,38.27
2019-01-17T18:15:01.735Z,30.80
2019-01-17T18:17:29.500Z,31.43
2019-01-17T18:19:56.554Z,30.90
2019-01-17T18:22:25.184Z,30.17
2019-01-17T18:24:52.401Z,39.40
2019-01-17T18:27:19.445Z,35.73
2019-01-17T18:29:46.484Z,40.23
2019-01-17T18:32:13.547Z,37.47
2019-01-17T18:34:40.580Z,29.23
2019-01-17T18:37:07.742Z,40.63
2019-01-17T18:39:34.738Z,34.00
2019-01-17T18:42:01.727Z,35.73
2019-01-17T18:44:28.775Z,34.07
2019-01-17T18:46:55.830Z,28.17
2019-01-17T18:49:22.981Z,30.90
2019-01-17T18:51:50.023Z,32.20
2019-01-17T18:54:17.075Z,32.97
2019-01-17T18:56:44.126Z,34.10
2019-01-17T18:59:11.375Z,33.53
2019-01-17T19:01:38.428Z,32.00
2019-01-17T19:04:05.481Z,34.07
2019-01-17T19:06:32.535Z,31.67
2019-01-17T19:08:59.573Z,36.60
2019-01-17T19:11:26.569Z,37.53
2019-01-17T19:13:53.568Z,38.27
2019-01-17T19:16:20.509Z,33.17
2019-01-17T19:18:47.562Z,37.07
2019-01-17T19:21:14.608Z,41.03
2019-01-17T19:23:41.677Z,36.93
2019-01-17T19:26:08.710Z,46.80
2019-01-17T19:28:35.870Z,42.40
2019-01-17T19:31:04.382Z,42.47
2019-01-17T19:33:31.489Z,37.37
2019-01-17T19:35:58.541Z,42.77
2019-01-17T19:38:25.583Z,37.07
2019-01-17T19:40:55.393Z,37.87
2019-01-17T19:43:22.883Z,42.03
2019-01-17T19:45:49.910Z,37.87
2019-01-17T19:48:17.675Z,34.63
2019-01-17T19:50:44.720Z,35.43
2019-01-17T19:53:11.740Z,37.03
2019-01-17T19:55:40.151Z,39.33
2019-01-17T19:58:07.403Z,35.50
2019-01-17T20:00:34.450Z,37.67
2019-01-17T20:03:01.606Z,34.40
2019-01-17T20:05:28.759Z,33.27
2019-01-17T20:07:55.805Z,34.67
2019-01-17T20:10:22.956Z,37.67
2019-01-17T20:12:50.013Z,36.23
2019-01-17T20:15:17.151Z,36.93
2019-01-17T20:17:44.199Z,35.67
2019-01-17T20:20:11.251Z,35.13
2019-01-17T20:22:38.317Z,35.40
2019-01-17T20:25:05.862Z,32.03
2019-01-17T20:27:32.904Z,30.43
2019-01-17T20:30:04.365Z,30.37
2019-01-17T20:32:31.712Z,33.70
2019-01-17T20:34:58.709Z,31.37
2019-01-17T20:37:25.706Z,27.10
2019-01-17T20:39:52.656Z,27.90
2019-01-17T20:42:19.701Z,33.27
2019-01-17T20:44:46.755Z,30.73
2019-01-17T20:47:17.170Z,37.90
2019-01-17T20:49:44.742Z,31.67
2019-01-17T20:52:11.786Z,25.97
2019-01-17T20:54:38.940Z,25.60
2019-01-17T20:57:05.987Z,25.87
2019-01-17T20:59:33.039Z,26.10
2019-01-17T21:02:01.057Z,25.97
2019-01-17T21:04:28.054Z,25.13
2019-01-17T21:06:57.661Z,24.33
2019-01-17T21:09:24.716Z,25.00
2019-01-17T21:11:51.760Z,24.77
2019-01-17T21:14:19.795Z,25.03
2019-01-17T21:16:46.783Z,22.37
2019-01-17T21:19:13.826Z,22.90
2019-01-17T21:21:40.875Z,21.90
2019-01-17T21:24:07.929Z,18.77
2019-01-17T21:26:38.350Z,19.43
2019-01-17T21:29:05.356Z,19.87
2019-01-17T21:31:32.299Z,21.57
2019-01-17T21:33:59.296Z,25.53
2019-01-17T21:36:27.064Z,39.77
2019-01-17T21:38:54.106Z,32.63
2019-01-17T21:41:21.111Z,27.17
2019-01-17T21:43:49.076Z,25.07
2019-01-17T21:46:16.071Z,22.47
2019-01-17T21:48:43.125Z,23.13
2019-01-17T21:51:10.781Z,21.10
2019-01-17T21:53:37.830Z,21.70
2019-01-17T21:56:04.884Z,20.53
2019-01-17T21:58:32.650Z,20.80
2019-01-17T22:00:59.693Z,21.57
2019-01-17T22:03:26.741Z,20.07
2019-01-17T22:05:53.994Z,20.50
2019-01-17T22:08:21.061Z,19.00
2019-01-17T22:10:48.096Z,18.40
2019-01-17T22:13:23.334Z,18.63
2019-01-17T22:15:50.386Z,23.20
2019-01-17T22:18:17.429Z,22.77
2019-01-17T22:20:45.399Z,22.90
2019-01-17T22:23:12.454Z,25.10
2019-01-17T22:25:39.496Z,21.53
2019-01-17T22:28:06.545Z,23.33
2019-01-17T22:30:33.539Z,19.47
2019-01-17T22:33:00.540Z,18.87
2019-01-17T22:35:27.594Z,20.47
2019-01-17T22:37:54.637Z,20.00
2019-01-17T22:40:21.589Z,22.87
2019-01-17T22:42:48.631Z,21.63
2019-01-17T22:45:21.620Z,21.80
2019-01-17T22:47:48.668Z,22.27
2019-01-17T22:50:15.725Z,20.27
2019-01-17T22:52:42.769Z,20.23
2019-01-17T22:55:09.815Z,19.93
2019-01-17T22:57:36.868Z,20.47
2019-01-17T23:00:20.811Z,21.37
2019-01-17T23:02:47.957Z,23.07
2019-01-17T23:05:15.007Z,25.73
2019-01-17T23:07:42.066Z,23.53
2019-01-17T23:10:09.103Z,15.63
2019-01-17T23:12:36.152Z,19.87
2019-01-17T23:15:03.206Z,23.03
2019-01-17T23:17:30.250Z,20.87
2019-01-17T23:19:57.298Z,22.90
2019-01-17T23:22:24.361Z,21.33
2019-01-17T23:24:51.395Z,18.80
2019-01-17T23:27:18.299Z,19.67
2019-01-17T23:29:45.391Z,23.43
2019-01-17T23:32:12.439Z,23.10
2019-01-17T23:34:39.492Z,24.90
2019-01-17T23:37:06.535Z,19.43
2019-01-17T23:39:33.584Z,20.27
2019-01-17T23:42:00.646Z,22.23
2019-01-17T23:44:27.681Z,22.27
2019-01-17T23:46:54.750Z,23.77
2019-01-17T23:49:21.653Z,24.93
2019-01-17T23:51:48.725Z,28.00
2019-01-17T23:54:15.777Z,15.23
2019-01-17T23:56:42.823Z,23.00
2019-01-17T23:59:09.824Z,23.07
